sensor_id;sensor_type;location;lat;lon;timestamp;P1;durP1;ratioP1;P2;durP2;ratioP2
6852;SDS011;3465;42.144;24.722;2024-02-26T00:01:39;43.05;;;25.58;;
6852;SDS011;3465;42.144;24.722;2024-02-26T00:04:05;56.15;;;24.77;;
6852;SDS011;3465;42.144;24.722;2024-02-26T00:06:31;44.65;;;24.42;;
6852;SDS011;3465;42.144;24.722;2024-02-26T00:11:22;36.95;;;22.25;;
6852;SDS011;3465;42.144;24.722;2024-02-26T00:13:48;42.65;;;24.73;;
6852;SDS011;3465;42.144;24.722;2024-02-26T00:16:14;44.88;;;25.10;;
6852;SDS011;3465;42.144;24.722;2024-02-26T00:18:39;45.80;;;23.55;;
6852;SDS011;3465;42.144;24.722;2024-02-26T00:21:05;41.97;;;23.13;;
6852;SDS011;3465;42.144;24.722;2024-02-26T00:23:30;40.28;;;24.17;;
6852;SDS011;3465;42.144;24.722;2024-02-26T00:25:56;42.05;;;23.02;;
6852;SDS011;3465;42.144;24.722;2024-02-26T00:28:21;35.63;;;20.17;;
6852;SDS011;3465;42.144;24.722;2024-02-26T00:30:47;36.85;;;20.70;;
6852;SDS011;3465;42.144;24.722;2024-02-26T00:33:15;39.70;;;24.73;;
6852;SDS011;3465;42.144;24.722;2024-02-26T00:35:42;36.25;;;23.15;;
6852;SDS011;3465;42.144;24.722;2024-02-26T00:38:08;35.42;;;22.95;;
6852;SDS011;3465;42.144;24.722;2024-02-26T00:40:33;37.55;;;22.67;;
6852;SDS011;3465;42.144;24.722;2024-02-26T00:42:59;39.58;;;23.05;;
6852;SDS011;3465;42.144;24.722;2024-02-26T00:45:24;42.92;;;26.10;;
6852;SDS011;3465;42.144;24.722;2024-02-26T00:47:50;34.40;;;21.60;;
6852;SDS011;3465;42.144;24.722;2024-02-26T00:50:15;36.58;;;21.90;;
6852;SDS011;3465;42.144;24.722;2024-02-26T00:52:41;35.40;;;21.55;;
6852;SDS011;3465;42.144;24.722;2024-02-26T00:55:07;33.47;;;20.13;;
6852;SDS011;3465;42.144;24.722;2024-02-26T00:57:33;35.67;;;19.33;;
6852;SDS011;3465;42.144;24.722;2024-02-26T00:59:58;31.20;;;19.73;;
6852;SDS011;3465;42.144;24.722;2024-02-26T01:02:24;38.15;;;20.20;;
6852;SDS011;3465;42.144;24.722;2024-02-26T01:04:50;30.40;;;19.42;;
6852;SDS011;3465;42.144;24.722;2024-02-26T01:07:15;25.17;;;15.70;;
6852;SDS011;3465;42.144;24.722;2024-02-26T01:09:41;33.72;;;18.27;;
6852;SDS011;3465;42.144;24.722;2024-02-26T01:12:07;26.73;;;16.08;;
6852;SDS011;3465;42.144;24.722;2024-02-26T01:14:33;26.83;;;17.33;;
6852;SDS011;3465;42.144;24.722;2024-02-26T01:16:59;27.38;;;17.08;;
6852;SDS011;3465;42.144;24.722;2024-02-26T01:19:24;27.63;;;17.15;;
6852;SDS011;3465;42.144;24.722;2024-02-26T01:21:50;30.60;;;17.73;;
6852;SDS011;3465;42.144;24.722;2024-02-26T01:24:16;25.85;;;14.73;;
6852;SDS011;3465;42.144;24.722;2024-02-26T01:26:41;29.50;;;16.52;;
6852;SDS011;3465;42.144;24.722;2024-02-26T01:29:07;31.83;;;17.45;;
6852;SDS011;3465;42.144;24.722;2024-02-26T01:31:32;29.77;;;16.80;;
6852;SDS011;3465;42.144;24.722;2024-02-26T01:33:58;24.65;;;15.20;;
6852;SDS011;3465;42.144;24.722;2024-02-26T01:36:23;31.13;;;17.02;;
6852;SDS011;3465;42.144;24.722;2024-02-26T01:38:49;27.20;;;16.33;;
6852;SDS011;3465;42.144;24.722;2024-02-26T01:41:14;25.23;;;16.55;;
6852;SDS011;3465;42.144;24.722;2024-02-26T01:43:40;23.38;;;15.38;;
6852;SDS011;3465;42.144;24.722;2024-02-26T01:46:06;26.42;;;15.10;;
6852;SDS011;3465;42.144;24.722;2024-02-26T01:48:36;32.00;;;16.65;;
6852;SDS011;3465;42.144;24.722;2024-02-26T01:51:02;33.65;;;17.08;;
6852;SDS011;3465;42.144;24.722;2024-02-26T01:53:28;26.70;;;16.27;;
6852;SDS011;3465;42.144;24.722;2024-02-26T01:55:55;27.80;;;17.85;;
6852;SDS011;3465;42.144;24.722;2024-02-26T01:58:20;28.42;;;17.10;;
6852;SDS011;3465;42.144;24.722;2024-02-26T02:00:46;24.77;;;16.15;;
6852;SDS011;3465;42.144;24.722;2024-02-26T02:03:11;20.83;;;15.07;;
6852;SDS011;3465;42.144;24.722;2024-02-26T02:05:37;28.38;;;15.43;;
6852;SDS011;3465;42.144;24.722;2024-02-26T02:08:07;28.23;;;15.15;;
6852;SDS011;3465;42.144;24.722;2024-02-26T02:10:33;28.58;;;14.30;;
6852;SDS011;3465;42.144;24.722;2024-02-26T02:13:00;21.60;;;14.32;;
6852;SDS011;3465;42.144;24.722;2024-02-26T02:15:26;21.25;;;14.00;;
6852;SDS011;3465;42.144;24.722;2024-02-26T02:17:51;27.63;;;14.93;;
6852;SDS011;3465;42.144;24.722;2024-02-26T02:20:17;23.23;;;14.10;;
6852;SDS011;3465;42.144;24.722;2024-02-26T02:25:12;22.23;;;13.75;;
6852;SDS011;3465;42.144;24.722;2024-02-26T02:27:37;20.23;;;13.75;;
6852;SDS011;3465;42.144;24.722;2024-02-26T02:30:04;23.52;;;13.60;;
6852;SDS011;3465;42.144;24.722;2024-02-26T02:32:31;23.08;;;13.38;;
6852;SDS011;3465;42.144;24.722;2024-02-26T02:34:57;23.40;;;12.88;;
6852;SDS011;3465;42.144;24.722;2024-02-26T02:39:48;24.05;;;14.60;;
6852;SDS011;3465;42.144;24.722;2024-02-26T02:42:13;23.17;;;14.35;;
6852;SDS011;3465;42.144;24.722;2024-02-26T02:47:05;22.02;;;13.98;;
6852;SDS011;3465;42.144;24.722;2024-02-26T02:49:31;22.60;;;14.38;;
6852;SDS011;3465;42.144;24.722;2024-02-26T02:51:56;23.13;;;13.60;;
6852;SDS011;3465;42.144;24.722;2024-02-26T02:54:22;24.63;;;13.93;;
6852;SDS011;3465;42.144;24.722;2024-02-26T02:56:48;21.45;;;13.75;;
6852;SDS011;3465;42.144;24.722;2024-02-26T02:59:13;31.33;;;14.77;;
6852;SDS011;3465;42.144;24.722;2024-02-26T03:01:39;26.05;;;14.57;;
6852;SDS011;3465;42.144;24.722;2024-02-26T03:04:05;23.50;;;13.98;;
6852;SDS011;3465;42.144;24.722;2024-02-26T03:06:30;19.23;;;13.23;;
6852;SDS011;3465;42.144;24.722;2024-02-26T03:08:56;21.33;;;13.30;;
6852;SDS011;3465;42.144;24.722;2024-02-26T03:11:22;19.42;;;13.52;;
6852;SDS011;3465;42.144;24.722;2024-02-26T03:13:47;25.20;;;13.65;;
6852;SDS011;3465;42.144;24.722;2024-02-26T03:16:13;25.80;;;14.65;;
6852;SDS011;3465;42.144;24.722;2024-02-26T03:18:38;20.27;;;12.27;;
6852;SDS011;3465;42.144;24.722;2024-02-26T03:21:05;29.30;;;12.60;;
6852;SDS011;3465;42.144;24.722;2024-02-26T03:23:31;27.20;;;15.20;;
6852;SDS011;3465;42.144;24.722;2024-02-26T03:28:23;25.02;;;13.48;;
6852;SDS011;3465;42.144;24.722;2024-02-26T03:30:48;24.90;;;14.70;;
6852;SDS011;3465;42.144;24.722;2024-02-26T03:33:14;24.42;;;13.85;;
6852;SDS011;3465;42.144;24.722;2024-02-26T03:35:39;22.38;;;14.68;;
6852;SDS011;3465;42.144;24.722;2024-02-26T03:38:05;23.08;;;13.10;;
6852;SDS011;3465;42.144;24.722;2024-02-26T03:40:30;23.48;;;15.68;;
6852;SDS011;3465;42.144;24.722;2024-02-26T03:42:56;22.70;;;13.18;;
6852;SDS011;3465;42.144;24.722;2024-02-26T03:45:23;22.17;;;13.32;;
6852;SDS011;3465;42.144;24.722;2024-02-26T03:47:48;26.45;;;13.50;;
6852;SDS011;3465;42.144;24.722;2024-02-26T03:50:14;20.73;;;13.55;;
6852;SDS011;3465;42.144;24.722;2024-02-26T03:52:39;21.77;;;13.85;;
6852;SDS011;3465;42.144;24.722;2024-02-26T03:55:05;22.02;;;14.40;;
6852;SDS011;3465;42.144;24.722;2024-02-26T03:57:31;29.00;;;13.93;;
6852;SDS011;3465;42.144;24.722;2024-02-26T03:59:56;26.27;;;15.45;;
6852;SDS011;3465;42.144;24.722;2024-02-26T04:02:22;23.50;;;14.10;;
6852;SDS011;3465;42.144;24.722;2024-02-26T04:04:48;26.08;;;15.02;;
6852;SDS011;3465;42.144;24.722;2024-02-26T04:07:14;29.98;;;16.65;;
6852;SDS011;3465;42.144;24.722;2024-02-26T04:09:39;21.75;;;14.57;;
6852;SDS011;3465;42.144;24.722;2024-02-26T04:12:05;26.45;;;14.40;;
6852;SDS011;3465;42.144;24.722;2024-02-26T04:14:31;30.13;;;17.58;;
6852;SDS011;3465;42.144;24.722;2024-02-26T04:16:56;27.25;;;16.17;;
6852;SDS011;3465;42.144;24.722;2024-02-26T04:19:22;27.48;;;16.52;;
6852;SDS011;3465;42.144;24.722;2024-02-26T04:21:47;30.85;;;18.70;;
6852;SDS011;3465;42.144;24.722;2024-02-26T04:24:13;30.55;;;18.48;;
6852;SDS011;3465;42.144;24.722;2024-02-26T04:26:38;35.60;;;19.25;;
6852;SDS011;3465;42.144;24.722;2024-02-26T04:29:04;37.47;;;17.80;;
6852;SDS011;3465;42.144;24.722;2024-02-26T04:31:29;28.35;;;14.60;;
6852;SDS011;3465;42.144;24.722;2024-02-26T04:33:58;23.38;;;13.45;;
6852;SDS011;3465;42.144;24.722;2024-02-26T04:36:23;25.95;;;14.90;;
6852;SDS011;3465;42.144;24.722;2024-02-26T04:38:51;19.73;;;13.57;;
6852;SDS011;3465;42.144;24.722;2024-02-26T04:41:16;29.42;;;16.95;;
6852;SDS011;3465;42.144;24.722;2024-02-26T04:43:42;20.20;;;12.13;;
6852;SDS011;3465;42.144;24.722;2024-02-26T04:46:08;19.20;;;12.98;;
6852;SDS011;3465;42.144;24.722;2024-02-26T04:48:34;19.25;;;11.02;;
6852;SDS011;3465;42.144;24.722;2024-02-26T04:51:00;22.45;;;13.30;;
6852;SDS011;3465;42.144;24.722;2024-02-26T04:53:26;19.80;;;12.20;;
6852;SDS011;3465;42.144;24.722;2024-02-26T04:55:52;19.73;;;12.63;;
6852;SDS011;3465;42.144;24.722;2024-02-26T04:58:17;22.10;;;12.88;;
6852;SDS011;3465;42.144;24.722;2024-02-26T05:00:43;12.88;;;8.60;;
6852;SDS011;3465;42.144;24.722;2024-02-26T05:05:42;22.60;;;11.13;;
6852;SDS011;3465;42.144;24.722;2024-02-26T05:08:08;25.63;;;12.82;;
6852;SDS011;3465;42.144;24.722;2024-02-26T05:10:34;23.17;;;13.38;;
6852;SDS011;3465;42.144;24.722;2024-02-26T05:13:04;23.42;;;11.73;;
6852;SDS011;3465;42.144;24.722;2024-02-26T05:15:30;24.33;;;13.13;;
6852;SDS011;3465;42.144;24.722;2024-02-26T05:17:55;22.10;;;13.32;;
6852;SDS011;3465;42.144;24.722;2024-02-26T05:20:21;23.50;;;13.48;;
6852;SDS011;3465;42.144;24.722;2024-02-26T05:22:46;25.55;;;13.07;;
6852;SDS011;3465;42.144;24.722;2024-02-26T05:25:14;27.75;;;14.43;;
6852;SDS011;3465;42.144;24.722;2024-02-26T05:27:40;28.45;;;14.60;;
6852;SDS011;3465;42.144;24.722;2024-02-26T05:30:06;22.65;;;13.35;;
6852;SDS011;3465;42.144;24.722;2024-02-26T05:32:32;23.85;;;13.25;;
6852;SDS011;3465;42.144;24.722;2024-02-26T05:34:58;21.95;;;12.90;;
6852;SDS011;3465;42.144;24.722;2024-02-26T05:37:24;26.90;;;14.50;;
6852;SDS011;3465;42.144;24.722;2024-02-26T05:39:50;26.38;;;14.65;;
6852;SDS011;3465;42.144;24.722;2024-02-26T05:42:16;23.00;;;13.55;;
6852;SDS011;3465;42.144;24.722;2024-02-26T05:44:41;23.73;;;11.20;;
6852;SDS011;3465;42.144;24.722;2024-02-26T05:47:07;18.15;;;12.15;;
6852;SDS011;3465;42.144;24.722;2024-02-26T05:49:32;22.75;;;11.85;;
6852;SDS011;3465;42.144;24.722;2024-02-26T05:51:58;19.17;;;10.40;;
6852;SDS011;3465;42.144;24.722;2024-02-26T05:54:24;16.83;;;12.35;;
6852;SDS011;3465;42.144;24.722;2024-02-26T05:56:49;20.67;;;12.27;;
6852;SDS011;3465;42.144;24.722;2024-02-26T05:59:15;18.25;;;12.05;;
6852;SDS011;3465;42.144;24.722;2024-02-26T06:01:41;29.63;;;16.90;;
6852;SDS011;3465;42.144;24.722;2024-02-26T06:04:06;21.77;;;12.73;;
6852;SDS011;3465;42.144;24.722;2024-02-26T06:06:32;23.35;;;12.50;;
6852;SDS011;3465;42.144;24.722;2024-02-26T06:08:57;30.95;;;13.27;;
6852;SDS011;3465;42.144;24.722;2024-02-26T06:11:23;29.35;;;16.52;;
6852;SDS011;3465;42.144;24.722;2024-02-26T06:13:48;25.75;;;14.70;;
6852;SDS011;3465;42.144;24.722;2024-02-26T06:16:14;26.30;;;16.13;;
6852;SDS011;3465;42.144;24.722;2024-02-26T06:18:39;30.95;;;14.63;;
6852;SDS011;3465;42.144;24.722;2024-02-26T06:21:08;28.83;;;15.98;;
6852;SDS011;3465;42.144;24.722;2024-02-26T06:23:34;28.65;;;16.83;;
6852;SDS011;3465;42.144;24.722;2024-02-26T06:26:00;27.27;;;16.23;;
6852;SDS011;3465;42.144;24.722;2024-02-26T06:28:25;28.35;;;16.10;;
6852;SDS011;3465;42.144;24.722;2024-02-26T06:30:51;27.45;;;15.32;;
6852;SDS011;3465;42.144;24.722;2024-02-26T06:33:17;22.63;;;16.00;;
6852;SDS011;3465;42.144;24.722;2024-02-26T06:35:43;21.92;;;14.23;;
6852;SDS011;3465;42.144;24.722;2024-02-26T06:38:09;32.03;;;17.70;;
6852;SDS011;3465;42.144;24.722;2024-02-26T06:40:36;29.95;;;17.83;;
6852;SDS011;3465;42.144;24.722;2024-02-26T06:43:02;30.27;;;15.93;;
6852;SDS011;3465;42.144;24.722;2024-02-26T06:45:27;30.95;;;16.58;;
6852;SDS011;3465;42.144;24.722;2024-02-26T06:47:53;35.53;;;16.52;;
6852;SDS011;3465;42.144;24.722;2024-02-26T06:50:18;31.40;;;17.58;;
6852;SDS011;3465;42.144;24.722;2024-02-26T06:52:44;26.88;;;15.32;;
6852;SDS011;3465;42.144;24.722;2024-02-26T06:55:10;25.60;;;13.15;;
6852;SDS011;3465;42.144;24.722;2024-02-26T06:57:36;28.58;;;15.20;;
6852;SDS011;3465;42.144;24.722;2024-02-26T07:00:02;23.20;;;14.70;;
6852;SDS011;3465;42.144;24.722;2024-02-26T07:02:29;24.92;;;15.25;;
6852;SDS011;3465;42.144;24.722;2024-02-26T07:04:54;17.40;;;10.77;;
6852;SDS011;3465;42.144;24.722;2024-02-26T07:07:21;19.98;;;11.07;;
6852;SDS011;3465;42.144;24.722;2024-02-26T07:09:48;17.90;;;11.35;;
6852;SDS011;3465;42.144;24.722;2024-02-26T07:12:14;23.45;;;11.32;;
6852;SDS011;3465;42.144;24.722;2024-02-26T07:14:41;21.73;;;12.90;;
6852;SDS011;3465;42.144;24.722;2024-02-26T07:17:07;20.30;;;12.52;;
6852;SDS011;3465;42.144;24.722;2024-02-26T07:21:59;22.05;;;13.90;;
6852;SDS011;3465;42.144;24.722;2024-02-26T07:24:26;21.30;;;13.23;;
6852;SDS011;3465;42.144;24.722;2024-02-26T07:26:53;23.73;;;13.43;;
6852;SDS011;3465;42.144;24.722;2024-02-26T07:29:20;26.23;;;13.40;;
6852;SDS011;3465;42.144;24.722;2024-02-26T07:31:46;26.42;;;14.75;;
6852;SDS011;3465;42.144;24.722;2024-02-26T07:34:12;24.75;;;15.25;;
6852;SDS011;3465;42.144;24.722;2024-02-26T07:36:37;25.40;;;14.90;;
6852;SDS011;3465;42.144;24.722;2024-02-26T07:39:03;30.70;;;14.45;;
6852;SDS011;3465;42.144;24.722;2024-02-26T07:41:28;24.33;;;14.52;;
6852;SDS011;3465;42.144;24.722;2024-02-26T07:43:54;28.83;;;15.40;;
6852;SDS011;3465;42.144;24.722;2024-02-26T07:46:19;30.45;;;16.52;;
6852;SDS011;3465;42.144;24.722;2024-02-26T07:48:45;27.60;;;15.80;;
6852;SDS011;3465;42.144;24.722;2024-02-26T07:51:13;22.48;;;14.65;;
6852;SDS011;3465;42.144;24.722;2024-02-26T07:53:39;23.60;;;14.57;;
6852;SDS011;3465;42.144;24.722;2024-02-26T07:56:05;26.08;;;13.93;;
6852;SDS011;3465;42.144;24.722;2024-02-26T07:58:32;27.20;;;15.25;;
6852;SDS011;3465;42.144;24.722;2024-02-26T08:00:58;25.88;;;14.52;;
6852;SDS011;3465;42.144;24.722;2024-02-26T08:03:23;25.33;;;14.23;;
6852;SDS011;3465;42.144;24.722;2024-02-26T08:05:49;23.80;;;16.00;;
6852;SDS011;3465;42.144;24.722;2024-02-26T08:08:16;32.38;;;18.35;;
6852;SDS011;3465;42.144;24.722;2024-02-26T08:10:41;33.78;;;18.10;;
6852;SDS011;3465;42.144;24.722;2024-02-26T08:13:07;35.45;;;19.90;;
6852;SDS011;3465;42.144;24.722;2024-02-26T08:15:32;30.75;;;18.95;;
6852;SDS011;3465;42.144;24.722;2024-02-26T08:17:59;24.58;;;16.38;;
6852;SDS011;3465;42.144;24.722;2024-02-26T08:20:27;26.42;;;17.20;;
6852;SDS011;3465;42.144;24.722;2024-02-26T08:22:53;27.85;;;16.10;;
6852;SDS011;3465;42.144;24.722;2024-02-26T08:25:19;27.48;;;16.67;;
6852;SDS011;3465;42.144;24.722;2024-02-26T08:27:44;32.80;;;17.00;;
6852;SDS011;3465;42.144;24.722;2024-02-26T08:30:10;32.25;;;16.83;;
6852;SDS011;3465;42.144;24.722;2024-02-26T08:32:38;23.65;;;15.30;;
6852;SDS011;3465;42.144;24.722;2024-02-26T08:35:04;26.85;;;15.65;;
6852;SDS011;3465;42.144;24.722;2024-02-26T08:37:30;29.48;;;14.00;;
6852;SDS011;3465;42.144;24.722;2024-02-26T08:39:55;28.15;;;16.08;;
6852;SDS011;3465;42.144;24.722;2024-02-26T08:44:48;28.08;;;14.82;;
6852;SDS011;3465;42.144;24.722;2024-02-26T08:47:14;26.98;;;16.00;;
6852;SDS011;3465;42.144;24.722;2024-02-26T08:49:44;25.60;;;14.68;;
6852;SDS011;3465;42.144;24.722;2024-02-26T08:52:10;31.38;;;14.38;;
6852;SDS011;3465;42.144;24.722;2024-02-26T08:54:35;25.98;;;16.55;;
6852;SDS011;3465;42.144;24.722;2024-02-26T08:57:01;34.95;;;16.65;;
6852;SDS011;3465;42.144;24.722;2024-02-26T08:59:27;30.95;;;17.15;;
6852;SDS011;3465;42.144;24.722;2024-02-26T09:01:53;28.00;;;15.20;;
6852;SDS011;3465;42.144;24.722;2024-02-26T09:04:18;25.42;;;15.35;;
6852;SDS011;3465;42.144;24.722;2024-02-26T09:06:44;29.20;;;16.48;;
6852;SDS011;3465;42.144;24.722;2024-02-26T09:09:10;30.00;;;16.02;;
6852;SDS011;3465;42.144;24.722;2024-02-26T09:11:36;27.27;;;16.95;;
6852;SDS011;3465;42.144;24.722;2024-02-26T09:16:28;25.08;;;16.50;;
6852;SDS011;3465;42.144;24.722;2024-02-26T09:18:54;28.38;;;18.02;;
6852;SDS011;3465;42.144;24.722;2024-02-26T09:21:20;32.97;;;17.02;;
6852;SDS011;3465;42.144;24.722;2024-02-26T09:23:49;30.58;;;16.15;;
6852;SDS011;3465;42.144;24.722;2024-02-26T09:26:15;29.45;;;17.20;;
6852;SDS011;3465;42.144;24.722;2024-02-26T09:28:41;27.85;;;17.83;;
6852;SDS011;3465;42.144;24.722;2024-02-26T09:31:07;27.35;;;15.77;;
6852;SDS011;3465;42.144;24.722;2024-02-26T09:35:58;27.95;;;16.70;;
6852;SDS011;3465;42.144;24.722;2024-02-26T09:38:24;22.33;;;15.15;;
6852;SDS011;3465;42.144;24.722;2024-02-26T09:40:49;25.33;;;15.27;;
6852;SDS011;3465;42.144;24.722;2024-02-26T09:45:42;21.90;;;14.32;;
6852;SDS011;3465;42.144;24.722;2024-02-26T09:48:08;23.85;;;14.88;;
6852;SDS011;3465;42.144;24.722;2024-02-26T09:50:36;23.25;;;14.52;;
6852;SDS011;3465;42.144;24.722;2024-02-26T09:53:02;25.05;;;14.38;;
6852;SDS011;3465;42.144;24.722;2024-02-26T09:55:30;28.05;;;14.48;;
6852;SDS011;3465;42.144;24.722;2024-02-26T10:00:22;20.27;;;14.25;;
6852;SDS011;3465;42.144;24.722;2024-02-26T10:02:50;22.25;;;13.90;;
6852;SDS011;3465;42.144;24.722;2024-02-26T10:05:17;22.25;;;15.25;;
6852;SDS011;3465;42.144;24.722;2024-02-26T10:07:46;30.70;;;15.13;;
6852;SDS011;3465;42.144;24.722;2024-02-26T10:10:15;22.60;;;13.48;;
6852;SDS011;3465;42.144;24.722;2024-02-26T10:12:42;25.85;;;14.27;;
6852;SDS011;3465;42.144;24.722;2024-02-26T10:17:33;24.77;;;15.48;;
6852;SDS011;3465;42.144;24.722;2024-02-26T10:20:15;21.02;;;14.07;;
6852;SDS011;3465;42.144;24.722;2024-02-26T10:22:42;22.58;;;14.00;;
6852;SDS011;3465;42.144;24.722;2024-02-26T10:27:34;23.25;;;12.93;;
6852;SDS011;3465;42.144;24.722;2024-02-26T10:30:19;21.27;;;12.98;;
6852;SDS011;3465;42.144;24.722;2024-02-26T10:32:51;18.80;;;13.27;;
6852;SDS011;3465;42.144;24.722;2024-02-26T10:35:16;23.88;;;13.35;;
6852;SDS011;3465;42.144;24.722;2024-02-26T10:37:43;24.95;;;14.73;;
6852;SDS011;3465;42.144;24.722;2024-02-26T10:40:09;27.90;;;13.95;;
6852;SDS011;3465;42.144;24.722;2024-02-26T10:42:39;26.48;;;14.52;;
6852;SDS011;3465;42.144;24.722;2024-02-26T10:45:06;21.83;;;14.75;;
6852;SDS011;3465;42.144;24.722;2024-02-26T10:47:36;36.97;;;23.58;;
6852;SDS011;3465;42.144;24.722;2024-02-26T10:50:03;25.65;;;15.10;;
6852;SDS011;3465;42.144;24.722;2024-02-26T10:52:34;26.45;;;14.15;;
6852;SDS011;3465;42.144;24.722;2024-02-26T10:55:01;26.52;;;13.77;;
6852;SDS011;3465;42.144;24.722;2024-02-26T10:57:32;25.95;;;15.82;;
6852;SDS011;3465;42.144;24.722;2024-02-26T11:00:00;23.00;;;14.55;;
6852;SDS011;3465;42.144;24.722;2024-02-26T11:02:30;38.88;;;22.55;;
6852;SDS011;3465;42.144;24.722;2024-02-26T11:04:58;32.15;;;19.85;;
6852;SDS011;3465;42.144;24.722;2024-02-26T11:07:27;23.08;;;16.70;;
6852;SDS011;3465;42.144;24.722;2024-02-26T11:09:54;23.40;;;14.95;;
6852;SDS011;3465;42.144;24.722;2024-02-26T11:14:46;25.80;;;14.98;;
6852;SDS011;3465;42.144;24.722;2024-02-26T11:17:12;30.00;;;12.95;;
6852;SDS011;3465;42.144;24.722;2024-02-26T11:19:41;26.13;;;13.38;;
6852;SDS011;3465;42.144;24.722;2024-02-26T11:22:09;17.35;;;8.40;;
6852;SDS011;3465;42.144;24.722;2024-02-26T11:27:06;12.40;;;7.90;;
6852;SDS011;3465;42.144;24.722;2024-02-26T11:29:35;10.27;;;6.20;;
6852;SDS011;3465;42.144;24.722;2024-02-26T11:32:04;10.60;;;7.57;;
6852;SDS011;3465;42.144;24.722;2024-02-26T11:34:31;13.27;;;8.77;;
6852;SDS011;3465;42.144;24.722;2024-02-26T11:39:23;21.15;;;9.13;;
6852;SDS011;3465;42.144;24.722;2024-02-26T11:41:49;15.73;;;9.15;;
6852;SDS011;3465;42.144;24.722;2024-02-26T11:44:15;18.58;;;8.63;;
6852;SDS011;3465;42.144;24.722;2024-02-26T11:46:53;16.70;;;9.10;;
6852;SDS011;3465;42.144;24.722;2024-02-26T11:51:56;18.25;;;9.98;;
6852;SDS011;3465;42.144;24.722;2024-02-26T11:59:47;15.73;;;9.40;;
6852;SDS011;3465;42.144;24.722;2024-02-26T12:04:59;18.35;;;9.43;;
6852;SDS011;3465;42.144;24.722;2024-02-26T12:09:49;26.27;;;10.55;;
6852;SDS011;3465;42.144;24.722;2024-02-26T12:14:53;18.05;;;10.80;;
6852;SDS011;3465;42.144;24.722;2024-02-26T12:17:21;13.93;;;9.48;;
6852;SDS011;3465;42.144;24.722;2024-02-26T12:19:48;17.58;;;9.23;;
6852;SDS011;3465;42.144;24.722;2024-02-26T12:24:44;18.60;;;10.23;;
6852;SDS011;3465;42.144;24.722;2024-02-26T12:27:10;21.10;;;10.23;;
6852;SDS011;3465;42.144;24.722;2024-02-26T12:29:36;16.15;;;8.88;;
6852;SDS011;3465;42.144;24.722;2024-02-26T12:34:31;14.55;;;9.90;;
6852;SDS011;3465;42.144;24.722;2024-02-26T12:39:22;17.25;;;9.80;;
6852;SDS011;3465;42.144;24.722;2024-02-26T12:41:48;16.08;;;10.05;;
6852;SDS011;3465;42.144;24.722;2024-02-26T12:44:17;17.42;;;10.60;;
6852;SDS011;3465;42.144;24.722;2024-02-26T12:46:49;20.92;;;12.15;;
6852;SDS011;3465;42.144;24.722;2024-02-26T12:49:15;19.23;;;11.45;;
6852;SDS011;3465;42.144;24.722;2024-02-26T12:51:44;14.80;;;10.15;;
6852;SDS011;3465;42.144;24.722;2024-02-26T12:54:10;15.85;;;9.85;;
6852;SDS011;3465;42.144;24.722;2024-02-26T12:56:37;17.02;;;10.45;;
6852;SDS011;3465;42.144;24.722;2024-02-26T13:01:28;17.58;;;10.38;;
6852;SDS011;3465;42.144;24.722;2024-02-26T13:03:55;18.63;;;11.98;;
6852;SDS011;3465;42.144;24.722;2024-02-26T13:06:21;16.95;;;10.55;;
6852;SDS011;3465;42.144;24.722;2024-02-26T13:11:13;19.58;;;11.00;;
6852;SDS011;3465;42.144;24.722;2024-02-26T13:13:39;19.63;;;10.60;;
6852;SDS011;3465;42.144;24.722;2024-02-26T13:18:33;25.90;;;11.82;;
6852;SDS011;3465;42.144;24.722;2024-02-26T13:21:19;18.60;;;10.07;;
6852;SDS011;3465;42.144;24.722;2024-02-26T13:23:51;16.40;;;10.85;;
6852;SDS011;3465;42.144;24.722;2024-02-26T13:26:17;19.23;;;10.27;;
6852;SDS011;3465;42.144;24.722;2024-02-26T13:28:58;17.08;;;10.50;;
6852;SDS011;3465;42.144;24.722;2024-02-26T13:31:24;20.45;;;10.35;;
6852;SDS011;3465;42.144;24.722;2024-02-26T13:36:18;14.18;;;9.70;;
6852;SDS011;3465;42.144;24.722;2024-02-26T13:41:16;16.25;;;10.38;;
6852;SDS011;3465;42.144;24.722;2024-02-26T13:46:07;20.60;;;10.05;;
6852;SDS011;3465;42.144;24.722;2024-02-26T13:48:33;17.38;;;10.60;;
6852;SDS011;3465;42.144;24.722;2024-02-26T13:50:58;13.20;;;9.77;;
6852;SDS011;3465;42.144;24.722;2024-02-26T13:53:24;19.30;;;11.00;;
6852;SDS011;3465;42.144;24.722;2024-02-26T13:55:49;23.95;;;10.73;;
6852;SDS011;3465;42.144;24.722;2024-02-26T13:58:15;16.98;;;9.27;;
6852;SDS011;3465;42.144;24.722;2024-02-26T14:00:40;17.83;;;9.35;;
6852;SDS011;3465;42.144;24.722;2024-02-26T14:05:32;19.52;;;9.75;;
6852;SDS011;3465;42.144;24.722;2024-02-26T14:07:57;13.68;;;8.95;;
6852;SDS011;3465;42.144;24.722;2024-02-26T14:10:23;17.13;;;9.35;;
6852;SDS011;3465;42.144;24.722;2024-02-26T14:12:49;17.75;;;9.15;;
6852;SDS011;3465;42.144;24.722;2024-02-26T14:15:16;14.93;;;9.18;;
6852;SDS011;3465;42.144;24.722;2024-02-26T14:20:08;15.02;;;7.55;;
6852;SDS011;3465;42.144;24.722;2024-02-26T14:22:34;11.95;;;8.45;;
6852;SDS011;3465;42.144;24.722;2024-02-26T14:27:25;22.73;;;8.98;;
6852;SDS011;3465;42.144;24.722;2024-02-26T14:29:50;14.50;;;8.32;;
6852;SDS011;3465;42.144;24.722;2024-02-26T14:32:16;16.00;;;8.38;;
6852;SDS011;3465;42.144;24.722;2024-02-26T14:34:42;17.50;;;9.25;;
6852;SDS011;3465;42.144;24.722;2024-02-26T14:39:33;14.93;;;7.13;;
6852;SDS011;3465;42.144;24.722;2024-02-26T14:44:25;7.75;;;4.53;;
6852;SDS011;3465;42.144;24.722;2024-02-26T14:46:51;11.43;;;4.82;;
6852;SDS011;3465;42.144;24.722;2024-02-26T14:51:42;9.63;;;5.65;;
6852;SDS011;3465;42.144;24.722;2024-02-26T14:54:10;9.85;;;4.88;;
6852;SDS011;3465;42.144;24.722;2024-02-26T14:56:38;7.65;;;5.10;;
6852;SDS011;3465;42.144;24.722;2024-02-26T15:01:31;12.15;;;4.65;;
6852;SDS011;3465;42.144;24.722;2024-02-26T15:06:22;6.00;;;4.22;;
6852;SDS011;3465;42.144;24.722;2024-02-26T15:08:48;10.50;;;5.45;;
6852;SDS011;3465;42.144;24.722;2024-02-26T15:13:40;12.88;;;5.47;;
6852;SDS011;3465;42.144;24.722;2024-02-26T15:18:31;7.63;;;4.75;;
6852;SDS011;3465;42.144;24.722;2024-02-26T15:23:22;9.98;;;5.43;;
6852;SDS011;3465;42.144;24.722;2024-02-26T15:28:14;7.90;;;4.95;;
6852;SDS011;3465;42.144;24.722;2024-02-26T15:30:40;8.52;;;4.05;;
6852;SDS011;3465;42.144;24.722;2024-02-26T15:35:31;10.85;;;4.53;;
6852;SDS011;3465;42.144;24.722;2024-02-26T15:37:57;7.38;;;4.57;;
6852;SDS011;3465;42.144;24.722;2024-02-26T15:40:23;12.73;;;5.95;;
6852;SDS011;3465;42.144;24.722;2024-02-26T15:42:49;9.77;;;5.00;;
6852;SDS011;3465;42.144;24.722;2024-02-26T15:47:40;12.65;;;4.97;;
6852;SDS011;3465;42.144;24.722;2024-02-26T15:50:06;8.00;;;4.90;;
6852;SDS011;3465;42.144;24.722;2024-02-26T15:54:58;11.20;;;5.07;;
6852;SDS011;3465;42.144;24.722;2024-02-26T15:59:48;8.00;;;4.15;;
6852;SDS011;3465;42.144;24.722;2024-02-26T16:02:15;8.38;;;4.45;;
6852;SDS011;3465;42.144;24.722;2024-02-26T16:07:06;8.32;;;4.72;;
6852;SDS011;3465;42.144;24.722;2024-02-26T16:09:37;7.03;;;5.20;;
6852;SDS011;3465;42.144;24.722;2024-02-26T16:14:49;11.10;;;5.70;;
6852;SDS011;3465;42.144;24.722;2024-02-26T16:17:18;9.32;;;5.15;;
6852;SDS011;3465;42.144;24.722;2024-02-26T16:19:59;7.57;;;4.72;;
6852;SDS011;3465;42.144;24.722;2024-02-26T16:22:25;11.70;;;6.72;;
6852;SDS011;3465;42.144;24.722;2024-02-26T16:24:52;17.38;;;8.32;;
6852;SDS011;3465;42.144;24.722;2024-02-26T16:29:43;13.98;;;8.23;;
6852;SDS011;3465;42.144;24.722;2024-02-26T16:32:09;21.73;;;7.90;;
6852;SDS011;3465;42.144;24.722;2024-02-26T16:37:03;12.73;;;6.80;;
6852;SDS011;3465;42.144;24.722;2024-02-26T16:39:38;12.68;;;6.93;;
6852;SDS011;3465;42.144;24.722;2024-02-26T16:42:04;12.98;;;7.40;;